createdAt,value
2023-05-06T00:00:23.146Z,0.00
2023-05-06T00:01:23.162Z,0.00
2023-05-06T00:02:23.265Z,0.00
2023-05-06T00:03:23.179Z,0.00
2023-05-06T00:04:23.141Z,0.00
2023-05-06T00:05:23.098Z,0.00
2023-05-06T00:06:23.096Z,0.00
2023-05-06T00:07:23.086Z,0.00
2023-05-06T00:08:23.069Z,0.00
2023-05-06T00:09:23.056Z,0.00
2023-05-06T00:10:23.030Z,0.00
2023-05-06T00:11:23.021Z,0.00
2023-05-06T00:12:23.021Z,0.00
2023-05-06T00:13:23.007Z,0.00
2023-05-06T00:14:22.987Z,0.00
2023-05-06T00:15:22.989Z,0.00
2023-05-06T00:16:23.038Z,0.00
2023-05-06T00:17:22.957Z,0.00
2023-05-06T00:18:22.964Z,0.00
2023-05-06T00:19:22.962Z,0.00
2023-05-06T00:20:22.929Z,0.00
2023-05-06T00:21:22.916Z,0.00
2023-05-06T00:22:22.920Z,0.00
2023-05-06T00:23:22.880Z,0.00
2023-05-06T00:24:22.887Z,0.00
2023-05-06T00:25:22.868Z,0.00
2023-05-06T00:26:22.878Z,0.00
2023-05-06T00:27:22.861Z,0.00
2023-05-06T00:28:22.842Z,0.00
2023-05-06T00:29:22.833Z,0.00
2023-05-06T00:30:22.842Z,0.00
2023-05-06T00:31:22.835Z,0.00
2023-05-06T00:32:22.813Z,0.00
2023-05-06T00:33:22.794Z,0.00
2023-05-06T00:34:22.794Z,0.00
2023-05-06T00:35:22.769Z,0.00
2023-05-06T00:36:22.744Z,0.00
2023-05-06T00:37:22.743Z,0.00
2023-05-06T00:38:22.749Z,0.00
2023-05-06T00:39:22.749Z,0.00
2023-05-06T00:40:22.729Z,0.00
2023-05-06T00:41:22.688Z,0.00
2023-05-06T00:42:30.194Z,0.00
2023-05-06T00:43:22.685Z,0.00
2023-05-06T00:44:22.670Z,0.00
2023-05-06T00:45:22.653Z,0.00
2023-05-06T00:46:22.794Z,0.00
2023-05-06T00:47:22.630Z,0.00
2023-05-06T00:48:22.627Z,0.00
2023-05-06T00:49:22.597Z,0.00
2023-05-06T00:50:22.712Z,0.00
2023-05-06T00:51:22.625Z,0.00
2023-05-06T00:52:22.573Z,0.00
2023-05-06T00:53:22.571Z,0.00
2023-05-06T00:54:22.557Z,0.00
2023-05-06T00:55:22.542Z,0.00
2023-05-06T00:56:22.531Z,0.00
2023-05-06T00:57:22.525Z,0.00
2023-05-06T00:58:22.537Z,0.00
2023-05-06T00:59:22.510Z,0.00
2023-05-06T01:00:22.493Z,0.00
2023-05-06T01:01:22.520Z,0.00
2023-05-06T01:02:23.508Z,0.00
2023-05-06T01:03:22.596Z,0.00
2023-05-06T01:04:22.462Z,0.00
2023-05-06T01:05:22.545Z,0.00
2023-05-06T01:06:22.452Z,0.00
2023-05-06T01:07:22.429Z,0.00
2023-05-06T01:08:22.404Z,0.00
2023-05-06T01:09:22.397Z,0.00
2023-05-06T01:10:22.395Z,0.00
2023-05-06T01:11:22.378Z,0.00
2023-05-06T01:12:22.362Z,0.00
2023-05-06T01:13:22.369Z,0.00
2023-05-06T01:14:22.362Z,0.00
2023-05-06T01:15:22.324Z,0.00
2023-05-06T01:16:22.357Z,0.00
2023-05-06T01:17:22.320Z,0.00
2023-05-06T01:18:22.295Z,0.00
2023-05-06T01:19:22.321Z,0.00
2023-05-06T01:20:22.283Z,0.00
2023-05-06T01:21:22.267Z,0.00
2023-05-06T01:22:22.352Z,0.00
2023-05-06T01:23:22.248Z,0.00
2023-05-06T01:24:22.226Z,0.00
2023-05-06T01:25:22.221Z,0.00
2023-05-06T01:26:22.202Z,0.00
2023-05-06T01:27:22.194Z,0.00
2023-05-06T01:28:22.191Z,0.00
2023-05-06T01:29:22.169Z,0.00
2023-05-06T01:30:22.175Z,0.00
2023-05-06T01:31:22.182Z,0.00
2023-05-06T01:32:22.226Z,0.00
2023-05-06T01:33:22.132Z,0.00
2023-05-06T01:34:22.118Z,0.00
2023-05-06T01:35:22.104Z,0.00
2023-05-06T01:36:22.095Z,0.00
2023-05-06T01:37:22.093Z,0.00
2023-05-06T01:38:22.094Z,0.00
2023-05-06T01:39:22.060Z,0.00
2023-05-06T01:40:22.051Z,0.00
2023-05-06T01:41:22.040Z,0.00
2023-05-06T01:42:22.034Z,0.00
2023-05-06T01:43:22.037Z,0.00
2023-05-06T01:44:22.054Z,0.00
2023-05-06T01:45:22.015Z,0.00
2023-05-06T01:46:22.040Z,0.00
2023-05-06T01:47:21.977Z,0.00
2023-05-06T01:48:21.989Z,0.00
2023-05-06T01:49:21.972Z,0.00
2023-05-06T01:50:21.950Z,0.00
2023-05-06T01:51:21.931Z,0.00
2023-05-06T01:52:21.940Z,0.00
2023-05-06T01:53:21.913Z,0.00
2023-05-06T01:54:21.998Z,0.00
2023-05-06T01:55:21.911Z,0.00
2023-05-06T01:56:21.900Z,0.00
2023-05-06T01:57:21.863Z,0.00
2023-05-06T01:58:21.872Z,0.00
2023-05-06T01:59:21.870Z,0.00
2023-05-06T02:00:21.849Z,0.00
2023-05-06T02:01:21.860Z,0.00
2023-05-06T02:02:21.866Z,0.00
2023-05-06T02:03:21.902Z,0.00
2023-05-06T02:04:21.814Z,0.00
2023-05-06T02:05:21.791Z,0.00
2023-05-06T02:06:21.780Z,0.00
2023-05-06T02:07:21.754Z,0.00
2023-05-06T02:08:21.757Z,0.00
2023-05-06T02:09:21.743Z,0.00
2023-05-06T02:10:21.829Z,0.00
2023-05-06T02:11:21.743Z,0.00
2023-05-06T02:12:21.708Z,0.00
2023-05-06T02:13:21.710Z,0.00
2023-05-06T02:14:21.690Z,0.00
2023-05-06T02:15:21.689Z,0.00
2023-05-06T02:16:21.774Z,0.00
2023-05-06T02:17:21.654Z,0.00
2023-05-06T02:18:21.637Z,0.00
2023-05-06T02:19:21.634Z,0.00
2023-05-06T02:20:21.622Z,0.00
2023-05-06T02:21:21.603Z,0.00
2023-05-06T02:22:21.601Z,0.00
2023-05-06T02:23:21.584Z,0.00
2023-05-06T02:24:21.575Z,0.00
2023-05-06T02:25:21.565Z,0.00
2023-05-06T02:26:21.635Z,0.00
2023-05-06T02:27:21.560Z,0.00
2023-05-06T02:28:21.531Z,0.00
2023-05-06T02:29:21.528Z,0.00
2023-05-06T02:30:21.513Z,0.00
2023-05-06T02:31:21.526Z,0.00
2023-05-06T02:32:21.535Z,0.00
2023-05-06T02:33:21.468Z,0.00
2023-05-06T02:34:21.460Z,0.00
2023-05-06T02:35:21.466Z,0.00
2023-05-06T02:36:21.438Z,0.00
2023-05-06T02:37:21.430Z,0.00
2023-05-06T02:38:21.418Z,0.00
2023-05-06T02:39:21.405Z,0.00
2023-05-06T02:40:21.414Z,0.00
2023-05-06T02:41:21.402Z,0.00
2023-05-06T02:42:21.528Z,0.00
2023-05-06T02:43:28.876Z,0.00
2023-05-06T02:44:21.345Z,0.00
2023-05-06T02:45:21.349Z,0.00
2023-05-06T02:46:21.393Z,0.00
2023-05-06T02:47:21.362Z,0.00
2023-05-06T02:48:21.302Z,0.00
2023-05-06T02:49:21.291Z,0.00
2023-05-06T02:50:21.279Z,0.00
2023-05-06T02:51:21.283Z,0.00
2023-05-06T02:52:21.260Z,0.00
2023-05-06T02:53:21.249Z,0.00
2023-05-06T02:54:21.234Z,0.00
2023-05-06T02:55:21.239Z,0.00
2023-05-06T02:56:21.237Z,0.00
2023-05-06T02:57:21.212Z,0.00
2023-05-06T02:58:21.300Z,0.00
2023-05-06T02:59:21.183Z,0.00
2023-05-06T03:00:21.168Z,0.00
2023-05-06T03:01:21.207Z,0.00
2023-05-06T03:02:21.186Z,0.00
2023-05-06T03:03:21.140Z,0.00
2023-05-06T03:04:21.124Z,0.00
2023-05-06T03:05:21.160Z,0.00
2023-05-06T03:06:21.127Z,0.00
2023-05-06T03:07:21.107Z,0.00
2023-05-06T03:08:21.114Z,0.00
2023-05-06T03:09:21.072Z,0.00
2023-05-06T03:10:21.068Z,0.00
2023-05-06T03:11:21.062Z,0.00
2023-05-06T03:12:21.063Z,0.00
2023-05-06T03:13:21.113Z,0.00
2023-05-06T03:14:21.036Z,0.00
2023-05-06T03:15:21.008Z,0.00
2023-05-06T03:16:21.012Z,0.00
2023-05-06T03:17:21.000Z,0.00
2023-05-06T03:18:20.973Z,0.00
2023-05-06T03:19:20.979Z,0.00
2023-05-06T03:20:20.976Z,0.00
2023-05-06T03:21:20.961Z,0.00
2023-05-06T03:22:20.941Z,0.00
2023-05-06T03:23:20.923Z,0.00
2023-05-06T03:24:20.905Z,0.00
2023-05-06T03:25:20.895Z,0.00
2023-05-06T03:26:20.898Z,0.00
2023-05-06T03:27:20.895Z,0.00
2023-05-06T03:28:20.875Z,0.00
2023-05-06T03:29:20.881Z,0.00
2023-05-06T03:30:20.940Z,0.00
2023-05-06T03:31:20.920Z,0.00
2023-05-06T03:32:20.825Z,0.00
2023-05-06T03:33:20.812Z,0.00
2023-05-06T03:34:20.824Z,0.00
2023-05-06T03:35:20.790Z,0.00
2023-05-06T03:36:20.798Z,0.00
2023-05-06T03:37:20.774Z,0.00
2023-05-06T03:38:20.760Z,0.00
2023-05-06T03:39:20.739Z,0.00
2023-05-06T03:40:20.741Z,0.00
2023-05-06T03:41:20.724Z,0.00
2023-05-06T03:42:20.754Z,0.00
2023-05-06T03:43:20.725Z,0.00
2023-05-06T03:44:20.686Z,0.00
2023-05-06T03:45:20.671Z,0.00
2023-05-06T03:46:20.830Z,0.00
2023-05-06T03:47:20.679Z,0.00
2023-05-06T03:48:20.638Z,0.00
2023-05-06T03:49:20.644Z,0.00
2023-05-06T03:50:20.616Z,0.00
2023-05-06T03:51:20.606Z,0.00
2023-05-06T03:52:20.616Z,0.00
2023-05-06T03:53:20.586Z,0.00
2023-05-06T03:54:20.574Z,0.00
2023-05-06T03:55:20.563Z,5.62
2023-05-06T03:56:20.548Z,5.62
2023-05-06T03:57:20.561Z,5.62
2023-05-06T03:58:20.539Z,5.62
2023-05-06T03:59:20.532Z,5.62
2023-05-06T04:00:20.524Z,5.62
2023-05-06T04:01:20.497Z,5.62
2023-05-06T04:02:20.540Z,5.62
2023-05-06T04:03:20.545Z,5.62
2023-05-06T04:04:20.463Z,5.62
2023-05-06T04:05:20.483Z,5.62
2023-05-06T04:06:20.437Z,5.62
2023-05-06T04:07:20.429Z,5.62
2023-05-06T04:08:20.442Z,5.62
2023-05-06T04:09:20.417Z,5.62
2023-05-06T04:10:20.411Z,11.25
2023-05-06T04:11:20.382Z,11.25
2023-05-06T04:12:20.372Z,11.25
2023-05-06T04:13:20.502Z,11.25
2023-05-06T04:14:20.348Z,11.25
2023-05-06T04:15:20.345Z,11.25
2023-05-06T04:16:20.361Z,11.25
2023-05-06T04:17:20.354Z,11.25
2023-05-06T04:18:20.410Z,11.25
2023-05-06T04:19:20.298Z,11.25
2023-05-06T04:20:20.282Z,16.88
2023-05-06T04:21:20.274Z,16.88
2023-05-06T04:22:20.276Z,16.88
2023-05-06T04:23:20.278Z,16.88
2023-05-06T04:24:20.248Z,16.88
2023-05-06T04:25:20.230Z,16.88
2023-05-06T04:26:20.221Z,22.50
2023-05-06T04:27:20.210Z,22.50
2023-05-06T04:28:20.204Z,22.50
2023-05-06T04:29:20.214Z,22.50
2023-05-06T04:30:20.176Z,28.12
2023-05-06T04:31:20.211Z,28.12
2023-05-06T04:32:20.160Z,28.12
2023-05-06T04:33:20.160Z,28.12
2023-05-06T04:34:20.246Z,33.75
2023-05-06T04:35:20.130Z,33.75
2023-05-06T04:36:20.116Z,33.75
2023-05-06T04:37:20.112Z,39.38
2023-05-06T04:38:20.089Z,39.38
2023-05-06T04:39:20.099Z,39.38
2023-05-06T04:40:20.071Z,39.38
2023-05-06T04:41:20.059Z,39.38
2023-05-06T04:42:20.047Z,39.38
2023-05-06T04:43:20.046Z,39.38
2023-05-06T04:44:27.544Z,45.00
2023-05-06T04:45:20.029Z,45.00
2023-05-06T04:46:20.043Z,45.00
2023-05-06T04:47:19.993Z,45.00
2023-05-06T04:48:20.014Z,45.00
2023-05-06T04:49:19.991Z,50.62
2023-05-06T04:50:19.980Z,50.62
2023-05-06T04:51:19.967Z,50.62
2023-05-06T04:52:19.958Z,50.62
2023-05-06T04:53:19.942Z,56.25
2023-05-06T04:54:19.916Z,56.25
2023-05-06T04:55:19.927Z,61.88
2023-05-06T04:56:19.912Z,61.88
2023-05-06T04:57:19.907Z,61.88
2023-05-06T04:58:19.892Z,61.88
2023-05-06T04:59:19.875Z,67.50
2023-05-06T05:00:19.864Z,67.50
2023-05-06T05:01:19.869Z,61.88
2023-05-06T05:02:19.878Z,67.50
2023-05-06T05:03:20.659Z,67.50
2023-05-06T05:04:19.824Z,67.50
2023-05-06T05:05:19.803Z,67.50
2023-05-06T05:06:19.881Z,73.12
2023-05-06T05:07:19.778Z,73.12
2023-05-06T05:08:19.762Z,73.12
2023-05-06T05:09:19.770Z,73.12
2023-05-06T05:10:19.745Z,73.12
2023-05-06T05:11:19.754Z,78.75
2023-05-06T05:12:19.721Z,78.75
2023-05-06T05:13:19.816Z,78.75
2023-05-06T05:14:19.706Z,84.38
2023-05-06T05:15:19.700Z,84.38
2023-05-06T05:16:19.724Z,78.75
2023-05-06T05:17:19.692Z,78.75
2023-05-06T05:18:19.668Z,78.75
2023-05-06T05:19:19.650Z,73.12
2023-05-06T05:20:19.638Z,78.75
2023-05-06T05:21:19.635Z,78.75
2023-05-06T05:22:19.639Z,84.38
2023-05-06T05:23:19.639Z,84.38
2023-05-06T05:24:19.591Z,84.38
2023-05-06T05:25:19.577Z,84.38
2023-05-06T05:26:19.567Z,90.00
2023-05-06T05:27:19.569Z,95.62
2023-05-06T05:28:20.311Z,95.62
2023-05-06T05:29:19.537Z,95.62
2023-05-06T05:30:19.543Z,90.00
2023-05-06T05:31:19.573Z,95.62
2023-05-06T05:32:19.528Z,95.62
2023-05-06T05:33:19.606Z,95.62
2023-05-06T05:34:19.480Z,106.88
2023-05-06T05:35:19.477Z,112.50
2023-05-06T05:36:19.468Z,118.12
2023-05-06T05:37:19.464Z,123.75
2023-05-06T05:38:19.457Z,123.75
2023-05-06T05:39:19.433Z,123.75
2023-05-06T05:40:19.415Z,118.12
2023-05-06T05:41:19.421Z,112.50
2023-05-06T05:42:19.407Z,118.12
2023-05-06T05:43:19.400Z,118.12
2023-05-06T05:44:19.371Z,118.12
2023-05-06T05:45:19.369Z,118.12
2023-05-06T05:46:19.425Z,118.12
2023-05-06T05:47:19.342Z,112.50
2023-05-06T05:48:19.342Z,106.88
2023-05-06T05:49:19.326Z,106.88
2023-05-06T05:50:19.307Z,106.88
2023-05-06T05:51:19.293Z,112.50
2023-05-06T05:52:19.292Z,112.50
2023-05-06T05:53:19.290Z,112.50
2023-05-06T05:54:19.283Z,112.50
2023-05-06T05:55:19.257Z,118.12
2023-05-06T05:56:19.240Z,118.12
2023-05-06T05:57:19.240Z,118.12
2023-05-06T05:58:19.235Z,118.12
2023-05-06T05:59:19.209Z,118.12
2023-05-06T06:00:19.216Z,118.12
2023-05-06T06:01:19.193Z,118.12
2023-05-06T06:02:19.194Z,118.12
2023-05-06T06:03:19.294Z,118.12
2023-05-06T06:04:19.193Z,112.50
2023-05-06T06:05:19.135Z,112.50
2023-05-06T06:06:19.147Z,106.88
2023-05-06T06:07:19.119Z,112.50
2023-05-06T06:08:19.119Z,112.50
2023-05-06T06:09:19.101Z,112.50
2023-05-06T06:10:19.285Z,112.50
2023-05-06T06:11:19.088Z,118.12
2023-05-06T06:12:19.089Z,118.12
2023-05-06T06:13:19.149Z,118.12
2023-05-06T06:14:19.048Z,123.75
2023-05-06T06:15:19.032Z,123.75
2023-05-06T06:16:19.051Z,123.75
2023-05-06T06:17:19.024Z,129.38
2023-05-06T06:18:18.998Z,129.38
2023-05-06T06:19:18.984Z,129.38
2023-05-06T06:20:18.996Z,129.38
2023-05-06T06:21:18.973Z,129.38
2023-05-06T06:22:18.959Z,129.38
2023-05-06T06:23:18.955Z,135.00
2023-05-06T06:24:18.947Z,140.62
2023-05-06T06:25:18.943Z,151.88
2023-05-06T06:26:18.930Z,163.12
2023-05-06T06:27:18.900Z,174.38
2023-05-06T06:28:18.892Z,191.25
2023-05-06T06:29:18.893Z,196.88
2023-05-06T06:30:18.865Z,196.88
2023-05-06T06:31:18.918Z,208.12
2023-05-06T06:32:19.622Z,208.12
2023-05-06T06:33:18.836Z,202.50
2023-05-06T06:34:18.826Z,196.88
2023-05-06T06:35:18.817Z,196.88
2023-05-06T06:36:18.828Z,202.50
2023-05-06T06:37:18.793Z,202.50
2023-05-06T06:38:18.788Z,196.88
2023-05-06T06:39:18.787Z,196.88
2023-05-06T06:40:18.773Z,191.25
2023-05-06T06:41:18.767Z,196.88
2023-05-06T06:42:19.000Z,196.88
2023-05-06T06:43:18.726Z,196.88
2023-05-06T06:44:18.728Z,202.50
2023-05-06T06:45:26.210Z,202.50
2023-05-06T06:46:18.787Z,208.12
2023-05-06T06:47:18.705Z,196.88
2023-05-06T06:48:18.680Z,196.88
2023-05-06T06:49:18.675Z,202.50
2023-05-06T06:50:18.687Z,208.12
2023-05-06T06:51:18.636Z,225.00
2023-05-06T06:52:18.642Z,230.62
2023-05-06T06:53:18.617Z,236.25
2023-05-06T06:54:18.608Z,241.88
2023-05-06T06:55:18.600Z,241.88
2023-05-06T06:56:18.601Z,253.12
2023-05-06T06:57:18.575Z,247.50
2023-05-06T06:58:18.603Z,247.50
2023-05-06T06:59:18.562Z,247.50
2023-05-06T07:00:18.558Z,247.50
2023-05-06T07:01:18.557Z,241.88
2023-05-06T07:02:18.519Z,241.88
2023-05-06T07:03:18.518Z,253.12
2023-05-06T07:04:18.538Z,258.75
2023-05-06T07:05:18.485Z,247.50
2023-05-06T07:06:18.499Z,247.50
2023-05-06T07:07:18.464Z,236.25
2023-05-06T07:08:18.464Z,225.00
2023-05-06T07:09:18.436Z,225.00
2023-05-06T07:10:18.431Z,225.00
2023-05-06T07:11:18.432Z,230.62
2023-05-06T07:12:18.406Z,241.88
2023-05-06T07:13:18.493Z,241.88
2023-05-06T07:14:18.522Z,230.62
2023-05-06T07:15:18.373Z,213.75
2023-05-06T07:16:18.398Z,225.00
2023-05-06T07:17:18.445Z,213.75
2023-05-06T07:18:18.382Z,213.75
2023-05-06T07:19:18.331Z,213.75
2023-05-06T07:20:18.332Z,213.75
2023-05-06T07:21:18.305Z,208.12
2023-05-06T07:22:18.295Z,196.88
2023-05-06T07:23:18.279Z,191.25
2023-05-06T07:24:18.300Z,185.62
2023-05-06T07:25:18.257Z,191.25
2023-05-06T07:26:18.250Z,196.88
2023-05-06T07:27:18.241Z,196.88
2023-05-06T07:28:18.238Z,208.12
2023-05-06T07:29:18.225Z,196.88
2023-05-06T07:30:18.240Z,202.50
2023-05-06T07:31:18.241Z,219.38
2023-05-06T07:32:18.182Z,219.38
2023-05-06T07:33:18.174Z,219.38
2023-05-06T07:34:18.161Z,225.00
2023-05-06T07:35:18.169Z,208.12
2023-05-06T07:36:18.139Z,202.50
2023-05-06T07:37:18.143Z,208.12
2023-05-06T07:38:18.114Z,230.62
2023-05-06T07:39:18.104Z,230.62
2023-05-06T07:40:18.123Z,236.25
2023-05-06T07:41:18.093Z,253.12
2023-05-06T07:42:18.080Z,253.12
2023-05-06T07:43:18.064Z,258.75
2023-05-06T07:44:18.065Z,275.62
2023-05-06T07:45:18.053Z,303.75
2023-05-06T07:46:18.243Z,343.12
2023-05-06T07:47:18.066Z,360.00
2023-05-06T07:48:19.855Z,337.50
2023-05-06T07:49:18.007Z,326.25
2023-05-06T07:50:18.019Z,315.00
2023-05-06T07:51:17.978Z,303.75
2023-05-06T07:52:17.963Z,303.75
2023-05-06T07:53:17.956Z,298.12
2023-05-06T07:54:17.959Z,281.25
2023-05-06T07:55:17.928Z,275.62
2023-05-06T07:56:17.920Z,281.25
2023-05-06T07:57:17.916Z,298.12
2023-05-06T07:58:17.912Z,315.00
2023-05-06T07:59:17.888Z,326.25
2023-05-06T08:00:17.887Z,315.00
2023-05-06T08:01:18.631Z,331.88
2023-05-06T08:02:18.008Z,343.12
2023-05-06T08:03:18.026Z,354.38
2023-05-06T08:04:17.875Z,360.00
2023-05-06T08:05:17.818Z,360.00
2023-05-06T08:06:17.821Z,365.62
2023-05-06T08:07:17.822Z,405.00
2023-05-06T08:08:17.808Z,483.75
2023-05-06T08:09:23.003Z,551.25
2023-05-06T08:10:17.769Z,590.62
2023-05-06T08:11:19.363Z,646.88
2023-05-06T08:12:17.762Z,703.12
2023-05-06T08:13:17.922Z,703.12
2023-05-06T08:14:17.729Z,517.50
2023-05-06T08:15:17.723Z,461.25
2023-05-06T08:16:17.763Z,461.25
2023-05-06T08:17:17.744Z,528.75
2023-05-06T08:18:22.286Z,573.75
2023-05-06T08:19:18.669Z,618.75
2023-05-06T08:20:17.663Z,635.62
2023-05-06T08:21:17.650Z,652.50
2023-05-06T08:22:17.652Z,686.25
2023-05-06T08:23:17.624Z,742.50
2023-05-06T08:24:17.623Z,815.62
2023-05-06T08:25:17.609Z,888.75
2023-05-06T08:26:17.597Z,877.50
2023-05-06T08:27:17.614Z,888.75
2023-05-06T08:28:17.569Z,691.88
2023-05-06T08:29:17.565Z,810.00
2023-05-06T08:30:17.556Z,894.38
2023-05-06T08:31:17.603Z,804.38
2023-05-06T08:32:17.533Z,613.12
2023-05-06T08:33:17.528Z,540.00
2023-05-06T08:34:17.531Z,511.88
2023-05-06T08:35:17.496Z,517.50
2023-05-06T08:36:17.486Z,500.62
2023-05-06T08:37:17.525Z,540.00
2023-05-06T08:38:17.478Z,556.88
2023-05-06T08:39:17.469Z,568.12
2023-05-06T08:40:17.463Z,624.38
2023-05-06T08:41:17.423Z,686.25
2023-05-06T08:42:17.417Z,697.50
2023-05-06T08:43:17.404Z,691.88
2023-05-06T08:44:17.411Z,703.12
2023-05-06T08:45:17.404Z,731.25
2023-05-06T08:46:25.176Z,776.25
2023-05-06T08:47:17.375Z,821.25
2023-05-06T08:48:17.351Z,894.38
2023-05-06T08:49:17.360Z,1096.88
2023-05-06T08:50:17.486Z,1209.38
2023-05-06T08:51:17.318Z,933.75
2023-05-06T08:52:17.308Z,871.88
2023-05-06T08:53:17.303Z,883.12
2023-05-06T08:54:17.296Z,1006.88
2023-05-06T08:55:17.277Z,776.25
2023-05-06T08:56:17.272Z,731.25
2023-05-06T08:57:17.250Z,736.88
2023-05-06T08:58:17.267Z,810.00
2023-05-06T08:59:17.239Z,753.75
2023-05-06T09:00:17.231Z,697.50
2023-05-06T09:01:17.235Z,691.88
2023-05-06T09:02:17.228Z,691.88
2023-05-06T09:03:17.271Z,714.38
2023-05-06T09:04:17.177Z,742.50
2023-05-06T09:05:17.175Z,765.00
2023-05-06T09:06:17.353Z,810.00
2023-05-06T09:07:17.154Z,860.62
2023-05-06T09:08:17.147Z,871.88
2023-05-06T09:09:17.144Z,894.38
2023-05-06T09:10:17.111Z,1012.50
2023-05-06T09:11:17.120Z,1074.38
2023-05-06T09:12:17.096Z,1029.38
2023-05-06T09:13:17.110Z,832.50
2023-05-06T09:14:17.096Z,894.38
2023-05-06T09:15:17.057Z,928.12
2023-05-06T09:16:17.084Z,1057.50
2023-05-06T09:17:17.044Z,1012.50
2023-05-06T09:18:17.081Z,990.00
2023-05-06T09:19:17.010Z,995.62
2023-05-06T09:20:17.676Z,995.62
2023-05-06T09:21:16.992Z,961.88
2023-05-06T09:22:17.038Z,1006.88
2023-05-06T09:23:17.688Z,1012.50
2023-05-06T09:24:17.198Z,990.00
2023-05-06T09:25:16.976Z,995.62
2023-05-06T09:26:16.973Z,990.00
2023-05-06T09:27:16.957Z,995.62
2023-05-06T09:28:17.007Z,1006.88
2023-05-06T09:29:17.014Z,995.62
2023-05-06T09:30:17.200Z,1012.50
2023-05-06T09:31:16.924Z,1018.12
2023-05-06T09:32:16.877Z,995.62
2023-05-06T09:33:16.932Z,984.38
2023-05-06T09:34:16.854Z,967.50
2023-05-06T09:35:16.853Z,973.12
2023-05-06T09:36:16.837Z,978.75
2023-05-06T09:37:16.817Z,956.25
2023-05-06T09:38:17.020Z,956.25
2023-05-06T09:39:16.821Z,945.00
2023-05-06T09:40:16.793Z,961.88
2023-05-06T09:41:16.785Z,967.50
2023-05-06T09:42:16.772Z,978.75
2023-05-06T09:43:16.765Z,961.88
2023-05-06T09:44:16.743Z,945.00
2023-05-06T09:45:16.730Z,933.75
2023-05-06T09:46:16.770Z,905.62
2023-05-06T09:47:16.726Z,871.88
2023-05-06T09:48:16.709Z,855.00
2023-05-06T09:49:16.704Z,866.25
2023-05-06T09:50:16.682Z,877.50
2023-05-06T09:51:16.675Z,894.38
2023-05-06T09:52:16.660Z,905.62
2023-05-06T09:53:16.647Z,928.12
2023-05-06T09:54:16.761Z,922.50
2023-05-06T09:55:16.630Z,916.88
2023-05-06T09:56:16.628Z,928.12
2023-05-06T09:57:16.597Z,922.50
2023-05-06T09:58:16.592Z,911.25
2023-05-06T09:59:16.581Z,905.62
2023-05-06T10:00:16.597Z,900.00
2023-05-06T10:01:25.125Z,900.00
2023-05-06T10:02:16.662Z,900.00
2023-05-06T10:03:16.653Z,900.00
2023-05-06T10:04:16.713Z,905.62
2023-05-06T10:05:16.825Z,911.25
2023-05-06T10:06:16.552Z,922.50
2023-05-06T10:07:16.506Z,933.75
2023-05-06T10:08:16.482Z,928.12
2023-05-06T10:09:16.481Z,894.38
2023-05-06T10:10:16.794Z,905.62
2023-05-06T10:11:16.451Z,905.62
2023-05-06T10:12:16.445Z,911.25
2023-05-06T10:13:16.557Z,883.12
2023-05-06T10:14:16.429Z,871.88
2023-05-06T10:15:16.421Z,905.62
2023-05-06T10:16:16.560Z,911.25
2023-05-06T10:17:16.387Z,916.88
2023-05-06T10:18:16.370Z,911.25
2023-05-06T10:19:16.379Z,916.88
2023-05-06T10:20:16.376Z,916.88
2023-05-06T10:21:16.346Z,916.88
2023-05-06T10:22:16.333Z,900.00
2023-05-06T10:23:16.334Z,905.62
2023-05-06T10:24:16.333Z,900.00
2023-05-06T10:25:16.297Z,900.00
2023-05-06T10:26:16.308Z,911.25
2023-05-06T10:27:16.282Z,888.75
2023-05-06T10:28:18.502Z,888.75
2023-05-06T10:29:16.253Z,916.88
2023-05-06T10:30:16.240Z,894.38
2023-05-06T10:31:16.281Z,877.50
2023-05-06T10:32:16.251Z,905.62
2023-05-06T10:33:16.206Z,900.00
2023-05-06T10:34:16.212Z,888.75
2023-05-06T10:35:16.185Z,900.00
2023-05-06T10:36:16.189Z,905.62
2023-05-06T10:37:16.180Z,900.00
2023-05-06T10:38:16.175Z,877.50
2023-05-06T10:39:16.137Z,855.00
2023-05-06T10:40:16.216Z,894.38
2023-05-06T10:41:16.116Z,900.00
2023-05-06T10:42:16.215Z,888.75
2023-05-06T10:43:16.096Z,877.50
2023-05-06T10:44:16.085Z,905.62
2023-05-06T10:45:16.092Z,911.25
2023-05-06T10:46:16.163Z,911.25
2023-05-06T10:47:23.692Z,928.12
2023-05-06T10:48:16.036Z,922.50
2023-05-06T10:49:16.037Z,922.50
2023-05-06T10:50:16.061Z,916.88
2023-05-06T10:51:16.029Z,911.25
2023-05-06T10:52:15.995Z,905.62
2023-05-06T10:53:15.982Z,905.62
2023-05-06T10:54:15.982Z,900.00
2023-05-06T10:55:15.961Z,871.88
2023-05-06T10:56:15.957Z,866.25
2023-05-06T10:57:15.959Z,866.25
2023-05-06T10:58:16.116Z,877.50
2023-05-06T10:59:16.036Z,871.88
2023-05-06T11:00:15.920Z,871.88
2023-05-06T11:01:15.957Z,877.50
2023-05-06T11:02:15.920Z,843.75
2023-05-06T11:03:15.919Z,866.25
2023-05-06T11:04:15.876Z,849.38
2023-05-06T11:05:15.853Z,815.62
2023-05-06T11:06:15.839Z,826.88
2023-05-06T11:07:15.842Z,826.88
2023-05-06T11:08:15.833Z,832.50
2023-05-06T11:09:15.820Z,843.75
2023-05-06T11:10:15.800Z,843.75
2023-05-06T11:11:15.790Z,838.12
2023-05-06T11:12:15.798Z,832.50
2023-05-06T11:13:15.817Z,838.12
2023-05-06T11:14:15.882Z,826.88
2023-05-06T11:15:15.755Z,815.62
2023-05-06T11:16:15.793Z,810.00
2023-05-06T11:17:15.724Z,787.50
2023-05-06T11:18:15.720Z,810.00
2023-05-06T11:19:15.700Z,798.75
2023-05-06T11:20:15.688Z,776.25
2023-05-06T11:21:15.680Z,781.88
2023-05-06T11:22:15.790Z,793.12
2023-05-06T11:23:15.661Z,804.38
2023-05-06T11:24:15.645Z,815.62
2023-05-06T11:25:15.656Z,776.25
2023-05-06T11:26:15.634Z,776.25
2023-05-06T11:27:15.618Z,776.25
2023-05-06T11:28:15.609Z,781.88
2023-05-06T11:29:15.591Z,787.50
2023-05-06T11:30:15.807Z,776.25
2023-05-06T11:31:15.689Z,765.00
2023-05-06T11:32:15.566Z,770.62
2023-05-06T11:33:15.554Z,776.25
2023-05-06T11:34:15.543Z,781.88
2023-05-06T11:35:15.528Z,781.88
2023-05-06T11:36:15.543Z,781.88
2023-05-06T11:37:15.524Z,770.62
2023-05-06T11:38:15.491Z,781.88
2023-05-06T11:39:15.485Z,776.25
2023-05-06T11:40:15.484Z,787.50
2023-05-06T11:41:15.466Z,787.50
2023-05-06T11:42:15.450Z,776.25
2023-05-06T11:43:15.454Z,776.25
2023-05-06T11:44:15.429Z,765.00
2023-05-06T11:45:15.424Z,720.00
2023-05-06T11:46:15.618Z,697.50
2023-05-06T11:47:15.403Z,714.38
2023-05-06T11:48:15.414Z,708.75
2023-05-06T11:49:15.380Z,703.12
2023-05-06T11:50:15.370Z,708.75
2023-05-06T11:51:15.373Z,703.12
2023-05-06T11:52:15.345Z,686.25
2023-05-06T11:53:15.341Z,691.88
2023-05-06T11:54:15.328Z,680.62
2023-05-06T11:55:15.312Z,658.12
2023-05-06T11:56:15.313Z,675.00
2023-05-06T11:57:15.297Z,675.00
2023-05-06T11:58:15.282Z,691.88
2023-05-06T11:59:15.276Z,624.38
2023-05-06T12:00:15.291Z,624.38
2023-05-06T12:01:15.258Z,686.25
2023-05-06T12:02:15.349Z,697.50
2023-05-06T12:03:15.293Z,725.62
2023-05-06T12:04:15.302Z,720.00
2023-05-06T12:05:15.207Z,731.25
2023-05-06T12:06:15.227Z,731.25
2023-05-06T12:07:15.208Z,720.00
2023-05-06T12:08:26.669Z,725.62
2023-05-06T12:09:15.166Z,720.00
2023-05-06T12:10:15.165Z,714.38
2023-05-06T12:11:15.154Z,714.38
2023-05-06T12:12:15.127Z,714.38
2023-05-06T12:13:15.190Z,691.88
2023-05-06T12:14:15.119Z,697.50
2023-05-06T12:15:15.101Z,697.50
2023-05-06T12:16:15.146Z,697.50
2023-05-06T12:17:15.079Z,697.50
2023-05-06T12:18:15.160Z,703.12
2023-05-06T12:19:15.085Z,708.75
2023-05-06T12:20:15.045Z,720.00
2023-05-06T12:21:15.038Z,720.00
2023-05-06T12:22:15.039Z,703.12
2023-05-06T12:23:15.024Z,708.75
2023-05-06T12:24:15.032Z,708.75
2023-05-06T12:25:14.993Z,703.12
2023-05-06T12:26:14.991Z,703.12
2023-05-06T12:27:14.974Z,675.00
2023-05-06T12:28:15.728Z,691.88
2023-05-06T12:29:14.961Z,675.00
2023-05-06T12:30:14.942Z,680.62
2023-05-06T12:31:14.942Z,686.25
2023-05-06T12:32:14.916Z,686.25
2023-05-06T12:33:14.920Z,680.62
2023-05-06T12:34:14.985Z,669.38
2023-05-06T12:35:14.899Z,658.12
2023-05-06T12:36:14.903Z,658.12
2023-05-06T12:37:14.864Z,641.25
2023-05-06T12:38:14.855Z,646.88
2023-05-06T12:39:14.852Z,646.88
2023-05-06T12:40:14.834Z,652.50
2023-05-06T12:41:14.822Z,658.12
2023-05-06T12:42:14.822Z,652.50
2023-05-06T12:43:14.808Z,663.75
2023-05-06T12:44:14.787Z,658.12
2023-05-06T12:45:14.797Z,675.00
2023-05-06T12:46:14.810Z,675.00